| time (UTC) | temp F | wind direction | speed MPH | gust MPH | rain 1hr in | rain 24hr in | rain mn in | humidity % | barometer mb |
| 20260904162005 | 73 | 325 | 1.0 | 4.0 | 0.00 | 0.44 | 0.04 | 94 | 1016.1 |
| 20260904161504 | 73 | 314 | 1.0 | 7.0 | 0.00 | 0.44 | 0.04 | 94 | 1016.1 |
| 20260904161005 | 73 | 302 | 1.0 | 7.0 | 0.00 | 0.44 | 0.04 | 94 | 1016.0 |
| 20260904160504 | 73 | 301 | 0.0 | 4.0 | 0.00 | 0.44 | 0.04 | 94 | 1016.1 |
| 20260904160005 | 72 | 0 | 0.0 | 0.0 | 0.00 | 0.44 | 0.04 | 94 | 1016.0 |
| 20260904155504 | 72 | 0 | 0.0 | 0.0 | 0.00 | 0.44 | 0.04 | 94 | 1015.8 |
| 20260904155004 | 72 | 0 | 0.0 | 0.0 | 0.00 | 0.44 | 0.04 | 94 | 1015.1 |
| 20260904154504 | 72 | 0 | 0.0 | 0.0 | 0.00 | 0.44 | 0.04 | 94 | 1015.2 |
| 20260904154004 | 71 | 0 | 0.0 | 0.0 | 0.00 | 0.44 | 0.04 | 94 | 1015.2 |
| 20260904153504 | 71 | 0 | 0.0 | 0.0 | 0.00 | 0.44 | 0.04 | 94 | 1015.1 |
| 20260904153004 | 71 | 0 | 0.0 | 0.0 | 0.01 | 0.44 | 0.04 | 94 | 1015.0 |
| 20260904152504 | 71 | 0 | 0.0 | 0.0 | 0.02 | 0.44 | 0.04 | 94 | 1015.2 |
| 20260904152004 | 70 | 0 | 0.0 | 0.0 | 0.03 | 0.44 | 0.04 | 94 | 1015.4 |
| 20260904151503 | 70 | 0 | 0.0 | 0.0 | 0.03 | 0.44 | 0.04 | 94 | 1015.6 |
| 20260904150504 | 70 | 0 | 0.0 | 0.0 | 0.04 | 0.44 | 0.04 | 94 | 1015.4 |
| 20260904150004 | 70 | 0 | 0.0 | 0.0 | 0.04 | 0.44 | 0.04 | 94 | 1015.3 |
| 20260904145504 | 70 | 0 | 0.0 | 0.0 | 0.04 | 0.44 | 0.04 | 94 | 1015.5 |
| 20260904145004 | 70 | 0 | 0.0 | 0.0 | 0.04 | 0.44 | 0.04 | 94 | 1015.5 |
| 20260904144503 | 70 | 0 | 0.0 | 0.0 | 0.04 | 0.44 | 0.04 | 94 | 1015.6 |
| 20260904144005 | 70 | 0 | 0.0 | 0.0 | 0.04 | 0.44 | 0.04 | 94 | 1015.4 |
| 20260904143504 | 70 | 0 | 0.0 | 0.0 | 0.04 | 0.44 | 0.04 | 94 | 1015.6 |
| 20260904143004 | 69 | 0 | 0.0 | 0.0 | 0.03 | 0.43 | 0.03 | 94 | 1015.8 |
| 20260904142503 | 70 | 0 | 0.0 | 0.0 | 0.02 | 0.42 | 0.02 | 94 | 1015.8 |
| 20260904142004 | 70 | 0 | 0.0 | 0.0 | 0.01 | 0.41 | 0.01 | 94 | 1015.8 |
| 20260904141504 | 70 | 0 | 0.0 | 0.0 | 0.01 | 0.41 | 0.01 | 94 | 1015.8 |
| 20260904141004 | 70 | 0 | 0.0 | 0.0 | 0.00 | 0.40 | 0.00 | 94 | 1015.7 |
| 20260904140504 | 70 | 307 | 0.0 | 2.0 | 0.00 | 0.40 | 0.00 | 94 | 1015.8 |
| 20260904140004 | 70 | 307 | 0.0 | 2.0 | 0.00 | 0.40 | 0.00 | 94 | 1015.9 |
| 20260904135504 | 70 | 298 | 1.0 | 3.0 | 0.00 | 0.40 | 0.00 | 94 | 1016.0 |
| 20260904135004 | 70 | 296 | 1.0 | 3.0 | 0.00 | 0.40 | 0.00 | 94 | 1015.9 |
| 20260904134504 | 70 | 292 | 0.0 | 3.0 | 0.00 | 0.40 | 0.00 | 94 | 1015.8 |
| 20260904134004 | 70 | 0 | 0.0 | 0.0 | 0.00 | 0.40 | 0.00 | 94 | 1015.7 |
| 20260904133504 | 69 | 0 | 0.0 | 0.0 | 0.00 | 0.40 | 0.00 | 94 | 1015.8 |
| 20260904133004 | 69 | 0 | 0.0 | 0.0 | 0.00 | 0.40 | 0.00 | 94 | 1015.5 |
| 20260904132504 | 69 | 0 | 0.0 | 0.0 | 0.00 | 0.40 | 0.00 | 94 | 1015.3 |
| 20260904132004 | 69 | 0 | 0.0 | 0.0 | 0.00 | 0.40 | 0.00 | 94 | 1015.2 |
| 20260904131503 | 69 | 0 | 0.0 | 0.0 | 0.00 | 0.40 | 0.00 | 94 | 1015.2 |
| 20260904131004 | 69 | 0 | 0.0 | 0.0 | 0.00 | 0.40 | 0.00 | 94 | 1015.2 |
| 20260904130504 | 69 | 0 | 0.0 | 0.0 | 0.00 | 0.40 | 0.00 | 94 | 1015.2 |
| 20260904130005 | 69 | 0 | 0.0 | 0.0 | 0.00 | 0.40 | 0.00 | 94 | 1015.2 |
| 20260904125503 | 69 | 0 | 0.0 | 0.0 | 0.00 | 0.40 | 0.00 | 94 | 1015.2 |
| 20260904124504 | 69 | 0 | 0.0 | 0.0 | 0.00 | 0.40 | 0.00 | 94 | 1015.3 |
| 20260904124004 | 69 | 0 | 0.0 | 0.0 | 0.00 | 0.40 | 0.00 | 94 | 1015.3 |
| 20260904123504 | 68 | 0 | 0.0 | 0.0 | 0.00 | 0.40 | 0.00 | 94 | 1015.1 |
| 20260904123004 | 68 | 0 | 0.0 | 0.0 | 0.00 | 0.40 | 0.00 | 94 | 1015.0 |
| 20260904122504 | 68 | 0 | 0.0 | 0.0 | 0.00 | 0.40 | 0.00 | 94 | 1015.0 |
| 20260904122004 | 68 | 0 | 0.0 | 0.0 | 0.00 | 0.40 | 0.00 | 94 | 1015.0 |
| 20260904121503 | 68 | 0 | 0.0 | 0.0 | 0.00 | 0.40 | 0.00 | 94 | 1015.1 |
| 20260904121005 | 68 | 0 | 0.0 | 0.0 | 0.00 | 0.40 | 0.00 | 94 | 1015.0 |
| 20260904120503 | 68 | 0 | 0.0 | 0.0 | 0.00 | 0.40 | 0.00 | 94 | 1015.1 |
| 20260904120004 | 68 | 0 | 0.0 | 0.0 | 0.00 | 0.40 | 0.00 | 93 | 1015.2 |
| 20260904115504 | 68 | 0 | 0.0 | 0.0 | 0.00 | 0.40 | 0.00 | 93 | 1015.2 |
| 20260904115004 | 68 | 0 | 0.0 | 0.0 | 0.00 | 0.40 | 0.00 | 93 | 1015.1 |
| 20260904114504 | 68 | 0 | 0.0 | 0.0 | 0.00 | 0.40 | 0.00 | 93 | 1015.1 |
| 20260904114004 | 68 | 0 | 0.0 | 0.0 | 0.00 | 0.41 | 0.00 | 94 | 1014.9 |
| 20260904113504 | 68 | 0 | 0.0 | 0.0 | 0.00 | 0.45 | 0.00 | 93 | 1015.0 |
| 20260904113004 | 68 | 0 | 0.0 | 0.0 | 0.00 | 0.49 | 0.00 | 93 | 1014.8 |
| 20260904112504 | 68 | 0 | 0.0 | 0.0 | 0.00 | 0.55 | 0.00 | 93 | 1014.9 |
| 20260904112004 | 68 | 0 | 0.0 | 0.0 | 0.00 | 0.58 | 0.00 | 93 | 1014.7 |
| 20260904111504 | 68 | 0 | 0.0 | 0.0 | 0.00 | 0.58 | 0.00 | 93 | 1014.7 |
| 20260904111004 | 68 | 0 | 0.0 | 0.0 | 0.00 | 0.58 | 0.00 | 93 | 1014.7 |
| 20260904110503 | 68 | 0 | 0.0 | 0.0 | 0.00 | 0.58 | 0.00 | 93 | 1014.7 |
| 20260904110005 | 68 | 0 | 0.0 | 0.0 | 0.00 | 0.58 | 0.00 | 93 | 1014.7 |
| 20260904105503 | 68 | 0 | 0.0 | 0.0 | 0.00 | 0.58 | 0.00 | 93 | 1014.7 |
| 20260904105005 | 68 | 0 | 0.0 | 0.0 | 0.00 | 0.58 | 0.00 | 93 | 1014.7 |
| 20260904104504 | 68 | 0 | 0.0 | 0.0 | 0.00 | 0.58 | 0.00 | 93 | 1014.6 |
| 20260904104005 | 68 | 0 | 0.0 | 0.0 | 0.00 | 0.58 | 0.00 | 93 | 1014.4 |
| 20260904103503 | 68 | 0 | 0.0 | 0.0 | 0.00 | 0.58 | 0.00 | 93 | 1014.5 |
| 20260904103005 | 68 | 0 | 0.0 | 0.0 | 0.00 | 0.58 | 0.00 | 93 | 1014.3 |
| 20260904102503 | 68 | 0 | 0.0 | 0.0 | 0.00 | 0.58 | 0.00 | 93 | 1014.1 |
| 20260904102004 | 68 | 0 | 0.0 | 0.0 | 0.00 | 0.58 | 0.00 | 93 | 1014.0 |
| 20260904101504 | 68 | 0 | 0.0 | 0.0 | 0.00 | 0.58 | 0.00 | 93 | 1014.1 |
| 20260904101004 | 68 | 0 | 0.0 | 0.0 | 0.00 | 0.58 | 0.00 | 93 | 1014.3 |
| 20260904100504 | 68 | 0 | 0.0 | 0.0 | 0.00 | 0.58 | 0.00 | 93 | 1014.5 |
| 20260904100005 | 68 | 0 | 0.0 | 0.0 | 0.00 | 0.58 | 0.00 | 93 | 1014.7 |
| 20260904095503 | 68 | 0 | 0.0 | 0.0 | 0.00 | 0.58 | 0.00 | 93 | 1014.8 |
| 20260904095004 | 68 | 0 | 0.0 | 0.0 | 0.00 | 0.58 | 0.00 | 93 | 1014.9 |
| 20260904094504 | 68 | 0 | 0.0 | 0.0 | 0.00 | 0.58 | 0.00 | 93 | 1014.8 |
| 20260904094004 | 68 | 0 | 0.0 | 0.0 | 0.00 | 0.58 | 0.00 | 93 | 1014.6 |
| 20260904093504 | 68 | 0 | 0.0 | 0.0 | 0.00 | 0.58 | 0.00 | 93 | 1014.5 |
| 20260904093004 | 68 | 0 | 0.0 | 0.0 | 0.00 | 0.58 | 0.00 | 93 | 1014.5 |
| 20260904092503 | 68 | 0 | 0.0 | 0.0 | 0.00 | 0.58 | 0.00 | 93 | 1014.5 |
| 20260904092004 | 68 | 0 | 0.0 | 0.0 | 0.00 | 0.58 | 0.00 | 93 | 1014.5 |
| 20260904091004 | 68 | 0 | 0.0 | 0.0 | 0.00 | 0.58 | 0.00 | 93 | 1014.4 |
| 20260904090005 | 68 | 0 | 0.0 | 0.0 | 0.00 | 0.58 | 0.00 | 93 | 1014.4 |
| 20260904085503 | 68 | 0 | 0.0 | 0.0 | 0.00 | 0.58 | 0.00 | 93 | 1014.4 |
| 20260904085005 | 68 | 0 | 0.0 | 0.0 | 0.00 | 0.58 | 0.00 | 93 | 1014.3 |
| 20260904084005 | 68 | 0 | 0.0 | 0.0 | 0.00 | 0.58 | 0.00 | 93 | 1014.2 |
| 20260904083504 | 68 | 0 | 0.0 | 0.0 | 0.00 | 0.58 | 0.00 | 93 | 1014.0 |
| 20260904082504 | 68 | 0 | 0.0 | 0.0 | 0.00 | 0.58 | 0.00 | 93 | 1014.1 |
| 20260904081503 | 68 | 0 | 0.0 | 0.0 | 0.00 | 0.58 | 0.00 | 93 | 1014.3 |
| 20260904081004 | 68 | 0 | 0.0 | 0.0 | 0.00 | 0.58 | 0.00 | 93 | 1014.3 |
| 20260904080504 | 68 | 0 | 0.0 | 0.0 | 0.00 | 0.58 | 0.00 | 93 | 1014.3 |
| 20260904080005 | 68 | 0 | 0.0 | 0.0 | 0.00 | 0.58 | 0.00 | 93 | 1014.4 |
| 20260904074504 | 68 | 0 | 0.0 | 0.0 | 0.00 | 0.58 | 0.00 | 93 | 1014.5 |
| 20260904074004 | 68 | 0 | 0.0 | 0.0 | 0.00 | 0.58 | 0.00 | 93 | 1014.5 |
| 20260904073504 | 68 | 0 | 0.0 | 0.0 | 0.00 | 0.58 | 0.00 | 93 | 1014.6 |
| 20260904073004 | 68 | 0 | 0.0 | 0.0 | 0.00 | 0.58 | 0.00 | 93 | 1014.6 |
| 20260904072503 | 68 | 0 | 0.0 | 0.0 | 0.00 | 0.58 | 0.00 | 93 | 1014.6 |
| 20260904072005 | 68 | 0 | 0.0 | 0.0 | 0.00 | 0.58 | 0.00 | 93 | 1014.6 |
| 20260904071503 | 68 | 0 | 0.0 | 0.0 | 0.00 | 0.58 | 0.00 | 93 | 1014.6 |
| 20260904071005 | 68 | 0 | 0.0 | 0.0 | 0.00 | 0.58 | 0.00 | 93 | 1014.6 |
| 20260904070503 | 68 | 0 | 0.0 | 0.0 | 0.00 | 0.58 | 0.00 | 93 | 1014.6 |
| 20260904070004 | 68 | 0 | 0.0 | 0.0 | 0.00 | 0.58 | 0.00 | 93 | 1014.5 |
| 20260904065004 | 68 | 0 | 0.0 | 0.0 | 0.00 | 0.58 | 0.00 | 93 | 1014.5 |
| 20260904064504 | 68 | 0 | 0.0 | 0.0 | 0.00 | 0.58 | 0.00 | 93 | 1014.6 |
| 20260904064005 | 68 | 0 | 0.0 | 0.0 | 0.00 | 0.58 | 0.00 | 93 | 1014.6 |
| 20260904063504 | 68 | 0 | 0.0 | 0.0 | 0.00 | 0.58 | 0.00 | 93 | 1014.8 |
| 20260904063005 | 68 | 0 | 0.0 | 0.0 | 0.00 | 0.58 | 0.00 | 93 | 1014.8 |
| 20260904062503 | 68 | 0 | 0.0 | 0.0 | 0.00 | 0.58 | 0.00 | 93 | 1014.8 |
| 20260904062004 | 68 | 0 | 0.0 | 0.0 | 0.00 | 0.58 | 0.00 | 93 | 1014.8 |
| 20260904061504 | 68 | 0 | 0.0 | 0.0 | 0.00 | 0.58 | 0.00 | 93 | 1014.8 |
| 20260904061004 | 68 | 0 | 0.0 | 0.0 | 0.00 | 0.58 | 0.00 | 93 | 1014.7 |
| 20260904060504 | 68 | 0 | 0.0 | 0.0 | 0.00 | 0.58 | 0.00 | 93 | 1014.8 |
| 20260904060005 | 68 | 0 | 0.0 | 0.0 | 0.00 | 0.58 | 0.00 | 93 | 1014.8 |
| 20260904055503 | 68 | 0 | 0.0 | 0.0 | 0.00 | 0.58 | 0.00 | 93 | 1014.8 |
| 20260904055005 | 68 | 0 | 0.0 | 0.0 | 0.00 | 0.58 | 0.00 | 93 | 1014.8 |
| 20260904054504 | 68 | 0 | 0.0 | 0.0 | 0.00 | 0.58 | 0.00 | 93 | 1014.8 |
| 20260904054004 | 68 | 0 | 0.0 | 0.0 | 0.00 | 0.58 | 0.00 | 93 | 1014.7 |
| 20260904053504 | 68 | 0 | 0.0 | 0.0 | 0.00 | 0.58 | 0.00 | 93 | 1014.7 |
| 20260904053004 | 68 | 0 | 0.0 | 0.0 | 0.00 | 0.58 | 0.00 | 93 | 1014.6 |
| 20260904052504 | 68 | 0 | 0.0 | 0.0 | 0.00 | 0.58 | 0.00 | 93 | 1014.4 |
| 20260904052005 | 68 | 0 | 0.0 | 0.0 | 0.00 | 0.58 | 0.00 | 93 | 1014.4 |
| 20260904051504 | 69 | 0 | 0.0 | 0.0 | 0.00 | 0.58 | 0.00 | 93 | 1014.4 |
| 20260904051004 | 69 | 0 | 0.0 | 0.0 | 0.00 | 0.58 | 0.00 | 93 | 1014.2 |
| 20260904050504 | 69 | 0 | 0.0 | 0.0 | 0.00 | 0.58 | 0.00 | 93 | 1014.3 |
| 20260904050004 | 69 | 0 | 0.0 | 0.0 | 0.00 | 0.58 | 0.00 | 93 | 1014.2 |
| 20260904045504 | 69 | 193 | 0.0 | 1.0 | 0.01 | 0.58 | 0.00 | 93 | 1014.2 |
| 20260904045004 | 69 | 193 | 0.0 | 1.0 | 0.01 | 0.58 | 0.00 | 93 | 1014.2 |
| 20260904044004 | 69 | 0 | 0.0 | 0.0 | 0.03 | 0.58 | 0.00 | 93 | 1014.2 |
| 20260904043004 | 69 | 171 | 0.0 | 2.0 | 0.03 | 0.58 | 0.00 | 93 | 1014.2 |
| 20260904041503 | 69 | 205 | 1.0 | 4.0 | 0.03 | 0.58 | 0.00 | 93 | 1014.2 |
| 20260904041005 | 69 | 207 | 2.0 | 5.0 | 0.03 | 0.58 | 0.00 | 93 | 1014.3 |
| 20260904040504 | 69 | 194 | 1.0 | 5.0 | 0.03 | 0.58 | 0.00 | 93 | 1014.4 |
| 20260904040008 | 69 | 146 | 0.0 | 4.0 | 0.03 | 0.58 | 0.00 | 92 | 1014.8 |
| 20260904035504 | 69 | 130 | 0.0 | 2.0 | 0.02 | 0.57 | 0.57 | 93 | 1014.7 |
| 20260904034503 | 69 | 0 | 0.0 | 0.0 | 0.01 | 0.56 | 0.56 | 92 | 1015.0 |
| 20260904034005 | 69 | 0 | 0.0 | 0.0 | 0.00 | 0.55 | 0.55 | 92 | 1014.9 |
| 20260904033503 | 69 | 0 | 0.0 | 0.0 | 0.00 | 0.55 | 0.55 | 92 | 1014.9 |
| 20260904032504 | 69 | 92 | 0.0 | 3.0 | 0.00 | 0.55 | 0.55 | 92 | 1014.3 |
| 20260904032004 | 69 | 92 | 0.0 | 3.0 | 0.00 | 0.55 | 0.55 | 92 | 1014.1 |
| 20260904031503 | 69 | 0 | 0.0 | 0.0 | 0.00 | 0.55 | 0.55 | 92 | 1013.9 |
| 20260904031005 | 69 | 224 | 0.0 | 3.0 | 0.00 | 0.55 | 0.55 | 92 | 1014.0 |
| 20260904030503 | 69 | 224 | 0.0 | 3.0 | 0.00 | 0.55 | 0.55 | 92 | 1014.3 |
| 20260904030005 | 69 | 219 | 0.0 | 2.0 | 0.00 | 0.55 | 0.55 | 92 | 1014.4 |
| 20260904025503 | 69 | 219 | 0.0 | 2.0 | 0.00 | 0.55 | 0.55 | 92 | 1014.5 |
| 20260904025005 | 69 | 0 | 0.0 | 0.0 | 0.00 | 0.55 | 0.55 | 92 | 1014.4 |
| 20260904024504 | 69 | 0 | 0.0 | 0.0 | 0.00 | 0.55 | 0.55 | 92 | 1014.4 |
| 20260904023004 | 69 | 187 | 0.0 | 2.0 | 0.00 | 0.55 | 0.55 | 92 | 1014.3 |
| 20260904022504 | 69 | 186 | 0.0 | 2.0 | 0.00 | 0.55 | 0.55 | 92 | 1014.3 |
| 20260904022004 | 69 | 0 | 0.0 | 0.0 | 0.00 | 0.55 | 0.55 | 92 | 1014.2 |
| 20260904021504 | 69 | 0 | 0.0 | 0.0 | 0.00 | 0.55 | 0.55 | 92 | 1014.2 |
| 20260904021004 | 69 | 0 | 0.0 | 0.0 | 0.00 | 0.55 | 0.55 | 92 | 1014.1 |
| 20260904020504 | 69 | 0 | 0.0 | 0.0 | 0.00 | 0.55 | 0.55 | 92 | 1014.0 |
| 20260904020004 | 69 | 0 | 0.0 | 0.0 | 0.00 | 0.55 | 0.55 | 91 | 1014.1 |
| 20260904015004 | 69 | 0 | 0.0 | 0.0 | 0.00 | 0.55 | 0.55 | 91 | 1014.2 |
| 20260904014503 | 69 | 0 | 0.0 | 0.0 | 0.00 | 0.55 | 0.55 | 91 | 1014.3 |
| 20260904013503 | 69 | 0 | 0.0 | 0.0 | 0.00 | 0.55 | 0.55 | 91 | 1013.9 |
| 20260904013004 | 69 | 0 | 0.0 | 0.0 | 0.00 | 0.55 | 0.55 | 91 | 1013.8 |
| 20260904012504 | 69 | 0 | 0.0 | 0.0 | 0.00 | 0.55 | 0.55 | 91 | 1013.8 |
| 20260904012004 | 69 | 0 | 0.0 | 0.0 | 0.00 | 0.55 | 0.55 | 91 | 1013.9 |
| 20260904011504 | 69 | 0 | 0.0 | 0.0 | 0.00 | 0.55 | 0.55 | 91 | 1013.7 |
| 20260904011005 | 69 | 0 | 0.0 | 0.0 | 0.00 | 0.55 | 0.55 | 91 | 1013.9 |
| 20260904010504 | 69 | 0 | 0.0 | 0.0 | 0.00 | 0.55 | 0.55 | 91 | 1014.1 |
| 20260904010004 | 69 | 0 | 0.0 | 0.0 | 0.00 | 0.55 | 0.55 | 91 | 1014.3 |
| 20260904005503 | 70 | 0 | 0.0 | 0.0 | 0.00 | 0.55 | 0.55 | 90 | 1014.4 |
| 20260904005005 | 70 | 0 | 0.0 | 0.0 | 0.01 | 0.55 | 0.55 | 90 | 1014.3 |
| 20260904004503 | 70 | 0 | 0.0 | 0.0 | 0.01 | 0.55 | 0.55 | 90 | 1014.5 |
| 20260904003505 | 70 | 0 | 0.0 | 0.0 | 0.05 | 0.55 | 0.55 | 90 | 1014.4 |
| 20260904003004 | 70 | 0 | 0.0 | 0.0 | 0.06 | 0.55 | 0.55 | 90 | 1014.2 |
| 20260904002504 | 70 | 0 | 0.0 | 0.0 | 0.07 | 0.55 | 0.55 | 89 | 1014.2 |
| 20260904002004 | 70 | 0 | 0.0 | 0.0 | 0.08 | 0.55 | 0.55 | 89 | 1014.4 |
| 20260904001504 | 70 | 0 | 0.0 | 0.0 | 0.09 | 0.55 | 0.55 | 89 | 1014.6 |
| 20260904001004 | 70 | 0 | 0.0 | 0.0 | 0.14 | 0.55 | 0.55 | 88 | 1014.7 |
| 20260904000504 | 70 | 0 | 0.0 | 0.0 | 0.17 | 0.55 | 0.55 | 88 | 1014.9 |
| 20260904000005 | 70 | 0 | 0.0 | 0.0 | 0.24 | 0.55 | 0.55 | 87 | 1015.0 |
| 20260903235503 | 71 | 0 | 0.0 | 0.0 | 0.31 | 0.55 | 0.55 | 87 | 1014.8 |
| 20260903235004 | 71 | 0 | 0.0 | 0.0 | 0.32 | 0.54 | 0.54 | 86 | 1015.5 |
| 20260903234004 | 71 | 0 | 0.0 | 0.0 | 0.34 | 0.52 | 0.52 | 85 | 1015.5 |
| 20260903233503 | 72 | 71 | 0.0 | 3.0 | 0.32 | 0.50 | 0.50 | 84 | 1015.8 |
| 20260903233004 | 72 | 343 | 0.0 | 5.0 | 0.31 | 0.49 | 0.49 | 83 | 1015.9 |
| 20260903232504 | 72 | 345 | 1.0 | 5.0 | 0.30 | 0.48 | 0.48 | 83 | 1015.9 |
| 20260903232005 | 73 | 349 | 0.0 | 2.0 | 0.29 | 0.47 | 0.47 | 82 | 1015.9 |
| 20260903231005 | 74 | 295 | 1.0 | 7.0 | 0.23 | 0.41 | 0.41 | 81 | 1016.7 |
| 20260903225504 | 76 | 340 | 4.0 | 12.0 | 0.06 | 0.24 | 0.24 | 77 | 1017.1 |
| 20260903225021 | 77 | 350 | 4.0 | 12.0 | 0.04 | 0.22 | 0.22 | 75 | 1015.8 |
| 20260903224504 | 78 | 351 | 5.0 | 27.0 | 0.02 | 0.20 | 0.20 | 73 | 1015.3 |
| 20260903224004 | 80 | 351 | 4.0 | 27.0 | 0.00 | 0.18 | 0.18 | 72 | 1014.7 |
| 20260903223504 | 81 | 321 | 0.0 | 6.0 | 0.00 | 0.18 | 0.18 | 75 | 1014.6 |
| 20260903223004 | 81 | 310 | 0.0 | 1.0 | 0.00 | 0.18 | 0.18 | 74 | 1014.0 |
| 20260903222504 | 81 | 0 | 0.0 | 0.0 | 0.00 | 0.18 | 0.18 | 73 | 1013.8 |
| 20260903222004 | 81 | 0 | 0.0 | 0.0 | 0.00 | 0.18 | 0.18 | 72 | 1013.7 |
| 20260903221504 | 81 | 0 | 0.0 | 0.0 | 0.00 | 0.18 | 0.18 | 71 | 1013.5 |
| 20260903221004 | 81 | 0 | 0.0 | 0.0 | 0.00 | 0.18 | 0.18 | 69 | 1013.3 |
| 20260903220005 | 81 | 0 | 0.0 | 0.0 | 0.00 | 0.18 | 0.18 | 68 | 1012.8 |
| 20260903215004 | 82 | 0 | 0.0 | 0.0 | 0.00 | 0.18 | 0.18 | 68 | 1012.7 |
| 20260903214504 | 82 | 0 | 0.0 | 0.0 | 0.00 | 0.18 | 0.18 | 67 | 1012.9 |
| 20260903214004 | 82 | 0 | 0.0 | 0.0 | 0.00 | 0.18 | 0.18 | 68 | 1013.2 |
| 20260903213504 | 82 | 0 | 0.0 | 0.0 | 0.00 | 0.18 | 0.18 | 69 | 1012.9 |
| 20260903213005 | 82 | 142 | 0.0 | 2.0 | 0.00 | 0.18 | 0.18 | 69 | 1012.9 |
| 20260903212504 | 82 | 142 | 0.0 | 2.0 | 0.00 | 0.18 | 0.18 | 70 | 1012.7 |
| 20260903212004 | 83 | 142 | 0.0 | 1.0 | 0.00 | 0.18 | 0.18 | 70 | 1012.7 |
| 20260903211504 | 83 | 141 | 0.0 | 2.0 | 0.00 | 0.18 | 0.18 | 71 | 1012.6 |
| 20260903211004 | 83 | 142 | 1.0 | 4.0 | 0.00 | 0.18 | 0.18 | 71 | 1012.5 |
| 20260903210504 | 83 | 143 | 1.0 | 4.0 | 0.00 | 0.18 | 0.18 | 71 | 1012.5 |
| 20260903205503 | 83 | 136 | 2.0 | 3.0 | 0.00 | 0.18 | 0.18 | 72 | 1011.8 |
| 20260903205005 | 84 | 133 | 3.0 | 7.0 | 0.00 | 0.18 | 0.18 | 71 | 1011.9 |
| 20260903204504 | 84 | 131 | 3.0 | 7.0 | 0.00 | 0.18 | 0.18 | 70 | 1012.0 |
| 20260903204005 | 85 | 123 | 2.0 | 4.0 | 0.00 | 0.18 | 0.18 | 70 | 1012.0 |
| 20260903203504 | 85 | 119 | 2.0 | 5.0 | 0.00 | 0.18 | 0.18 | 69 | 1012.0 |
| 20260903203004 | 85 | 117 | 1.0 | 5.0 | 0.00 | 0.18 | 0.18 | 67 | 1012.2 |
| 20260903202504 | 86 | 98 | 2.0 | 4.0 | 0.00 | 0.18 | 0.18 | 67 | 1012.1 |
| 20260903202005 | 87 | 88 | 2.0 | 6.0 | 0.00 | 0.18 | 0.18 | 65 | 1011.7 |
| 20260903201504 | 87 | 76 | 1.0 | 6.0 | 0.00 | 0.18 | 0.18 | 64 | 1011.7 |
| 20260903200503 | 88 | 83 | 1.0 | 6.0 | 0.00 | 0.18 | 0.18 | 64 | 1012.0 |
| 20260903200005 | 89 | 60 | 0.0 | 6.0 | 0.00 | 0.18 | 0.18 | 62 | 1012.1 |
| 20260903195503 | 89 | 327 | 0.0 | 2.0 | 0.00 | 0.18 | 0.18 | 60 | 1012.0 |
| 20260903195005 | 90 | 332 | 1.0 | 4.0 | 0.00 | 0.18 | 0.18 | 59 | 1012.0 |
| 20260903194503 | 90 | 109 | 2.0 | 5.0 | 0.00 | 0.18 | 0.18 | 58 | 1012.1 |
| 20260903194005 | 90 | 126 | 2.0 | 5.0 | 0.00 | 0.18 | 0.18 | 56 | 1011.9 |
| 20260903193504 | 91 | 120 | 1.0 | 4.0 | 0.00 | 0.18 | 0.18 | 56 | 1012.1 |
| 20260903193004 | 92 | 117 | 0.0 | 4.0 | 0.00 | 0.18 | 0.18 | 57 | 1012.2 |
| 20260903192504 | 92 | 0 | 0.0 | 0.0 | 0.00 | 0.18 | 0.18 | 60 | 1012.0 |
| 20260903192004 | 92 | 0 | 0.0 | 0.0 | 0.00 | 0.18 | 0.18 | 61 | 1011.9 |
| 20260903191504 | 92 | 0 | 0.0 | 0.0 | 0.00 | 0.18 | 0.18 | 61 | 1011.9 |
| 20260903191004 | 92 | 129 | 0.0 | 4.0 | 0.00 | 0.18 | 0.18 | 58 | 1012.0 |
| 20260903190504 | 92 | 130 | 2.0 | 9.0 | 0.00 | 0.18 | 0.18 | 57 | 1012.4 |
| 20260903185503 | 93 | 225 | 0.0 | 3.0 | 0.00 | 0.18 | 0.18 | 59 | 1012.8 |
| 20260903185004 | 93 | 239 | 1.0 | 4.0 | 0.00 | 0.18 | 0.18 | 60 | 1013.0 |
| 20260903184504 | 94 | 213 | 2.0 | 6.0 | 0.00 | 0.18 | 0.18 | 58 | 1013.0 |
| 20260903184004 | 94 | 197 | 2.0 | 6.0 | 0.00 | 0.18 | 0.18 | 57 | 1013.1 |
| 20260903183006 | 95 | 226 | 1.0 | 5.0 | 0.00 | 0.18 | 0.18 | 57 | 1013.2 |
| 20260903182504 | 96 | 243 | 1.0 | 6.0 | 0.00 | 0.18 | 0.18 | 55 | 1013.3 |
| 20260903182005 | 96 | 239 | 1.0 | 6.0 | 0.00 | 0.18 | 0.18 | 57 | 1013.4 |
| 20260903181504 | 96 | 233 | 2.0 | 5.0 | 0.00 | 0.18 | 0.18 | 58 | 1013.3 |
| 20260903181004 | 95 | 231 | 2.0 | 7.0 | 0.00 | 0.18 | 0.18 | 57 | 1013.3 |
| 20260903180004 | 95 | 237 | 2.0 | 7.0 | 0.00 | 0.18 | 0.18 | 58 | 1013.4 |
| 20260903175504 | 95 | 243 | 2.0 | 7.0 | 0.00 | 0.18 | 0.18 | 58 | 1013.5 |
| 20260903174504 | 94 | 232 | 1.0 | 7.0 | 0.00 | 0.18 | 0.18 | 59 | 1013.7 |
| 20260903173504 | 93 | 233 | 2.0 | 6.0 | 0.00 | 0.18 | 0.18 | 61 | 1014.0 |
| 20260903173004 | 93 | 212 | 1.0 | 6.0 | 0.00 | 0.18 | 0.18 | 63 | 1014.0 |
| 20260903172503 | 92 | 213 | 2.0 | 7.0 | 0.00 | 0.18 | 0.18 | 63 | 1014.1 |
| 20260903171005 | 92 | 247 | 1.0 | 7.0 | 0.00 | 0.18 | 0.18 | 63 | 1014.2 |
| 20260903170004 | 91 | 240 | 0.0 | 3.0 | 0.00 | 0.18 | 0.18 | 65 | 1014.4 |
| 20260903164504 | 90 | 238 | 3.0 | 10.0 | 0.00 | 0.18 | 0.18 | 64 | 1014.5 |
| 20260903164005 | 90 | 235 | 2.0 | 10.0 | 0.00 | 0.18 | 0.18 | 65 | 1014.6 |
| 20260903163503 | 89 | 233 | 1.0 | 5.0 | 0.00 | 0.18 | 0.18 | 67 | 1014.7 |
| 20260903163005 | 88 | 226 | 2.0 | 6.0 | 0.00 | 0.18 | 0.18 | 69 | 1014.8 |
| 20260903162504 | 88 | 227 | 2.0 | 9.0 | 0.00 | 0.18 | 0.18 | 69 | 1014.7 |